sensor_id;sensor_type;location;lat;lon;timestamp;pressure;altitude;pressure_sealevel;temperature;humidity
69153;BME280;56261;51.580;4.578;2024-01-15T00:02:13;100627.47;;;1.25;100.00
69153;BME280;56261;51.580;4.578;2024-01-15T00:04:39;100627.53;;;1.36;100.00
69153;BME280;56261;51.580;4.578;2024-01-15T00:07:06;100637.19;;;1.47;100.00
69153;BME280;56261;51.580;4.578;2024-01-15T00:09:31;100626.47;;;1.50;100.00
69153;BME280;56261;51.580;4.578;2024-01-15T00:11:56;100616.81;;;1.51;100.00
69153;BME280;56261;51.580;4.578;2024-01-15T00:14:22;100619.31;;;1.52;100.00
69153;BME280;56261;51.580;4.578;2024-01-15T00:16:48;100617.78;;;1.61;100.00
69153;BME280;56261;51.580;4.578;2024-01-15T00:19:16;100617.28;;;1.67;100.00
69153;BME280;56261;51.580;4.578;2024-01-15T00:21:42;100608.84;;;1.75;100.00
69153;BME280;56261;51.580;4.578;2024-01-15T00:24:08;100609.91;;;1.72;100.00
69153;BME280;56261;51.580;4.578;2024-01-15T00:26:33;100609.56;;;1.77;100.00
69153;BME280;56261;51.580;4.578;2024-01-15T00:28:58;100606.94;;;1.77;100.00
69153;BME280;56261;51.580;4.578;2024-01-15T00:31:24;100611.22;;;1.78;100.00
69153;BME280;56261;51.580;4.578;2024-01-15T00:33:49;100602.38;;;1.68;100.00
69153;BME280;56261;51.580;4.578;2024-01-15T00:36:15;100582.03;;;1.58;100.00
69153;BME280;56261;51.580;4.578;2024-01-15T00:38:41;100595.41;;;1.55;100.00
69153;BME280;56261;51.580;4.578;2024-01-15T00:41:07;100588.88;;;1.50;100.00
69153;BME280;56261;51.580;4.578;2024-01-15T00:43:33;100597.44;;;1.52;100.00
69153;BME280;56261;51.580;4.578;2024-01-15T00:46:01;100597.69;;;1.49;100.00
69153;BME280;56261;51.580;4.578;2024-01-15T00:48:27;100586.47;;;1.58;100.00
69153;BME280;56261;51.580;4.578;2024-01-15T00:50:52;100567.22;;;1.46;100.00
69153;BME280;56261;51.580;4.578;2024-01-15T00:53:19;100581.66;;;1.40;100.00
69153;BME280;56261;51.580;4.578;2024-01-15T00:55:47;100572.69;;;1.32;100.00
69153;BME280;56261;51.580;4.578;2024-01-15T00:58:12;100575.31;;;1.32;100.00
69153;BME280;56261;51.580;4.578;2024-01-15T01:00:38;100565.16;;;1.27;100.00
69153;BME280;56261;51.580;4.578;2024-01-15T01:03:03;100570.88;;;1.10;100.00
69153;BME280;56261;51.580;4.578;2024-01-15T01:05:29;100569.63;;;1.02;100.00
69153;BME280;56261;51.580;4.578;2024-01-15T01:07:54;100568.69;;;1.03;100.00
69153;BME280;56261;51.580;4.578;2024-01-15T01:10:19;100567.00;;;1.02;100.00
69153;BME280;56261;51.580;4.578;2024-01-15T01:12:45;100565.78;;;0.95;100.00
69153;BME280;56261;51.580;4.578;2024-01-15T01:15:10;100568.31;;;0.97;100.00
69153;BME280;56261;51.580;4.578;2024-01-15T01:17:35;100571.53;;;1.00;100.00
69153;BME280;56261;51.580;4.578;2024-01-15T01:20:01;100583.00;;;0.99;100.00
69153;BME280;56261;51.580;4.578;2024-01-15T01:22:29;100583.47;;;1.04;100.00
69153;BME280;56261;51.580;4.578;2024-01-15T01:24:55;100577.16;;;1.07;100.00
69153;BME280;56261;51.580;4.578;2024-01-15T01:27:20;100575.50;;;1.06;100.00
69153;BME280;56261;51.580;4.578;2024-01-15T01:29:46;100569.75;;;1.01;100.00
69153;BME280;56261;51.580;4.578;2024-01-15T01:32:11;100565.31;;;0.90;100.00
69153;BME280;56261;51.580;4.578;2024-01-15T01:34:40;100556.47;;;0.91;100.00
69153;BME280;56261;51.580;4.578;2024-01-15T01:37:09;100562.19;;;0.85;100.00
69153;BME280;56261;51.580;4.578;2024-01-15T01:39:35;100558.59;;;0.86;100.00
69153;BME280;56261;51.580;4.578;2024-01-15T01:42:01;100554.66;;;0.80;100.00
69153;BME280;56261;51.580;4.578;2024-01-15T01:44:26;100564.53;;;0.77;100.00
69153;BME280;56261;51.580;4.578;2024-01-15T01:46:51;100560.00;;;0.79;100.00
69153;BME280;56261;51.580;4.578;2024-01-15T01:49:17;100553.22;;;0.76;100.00
69153;BME280;56261;51.580;4.578;2024-01-15T01:51:43;100544.81;;;0.71;100.00
69153;BME280;56261;51.580;4.578;2024-01-15T01:54:09;100550.75;;;0.62;100.00
69153;BME280;56261;51.580;4.578;2024-01-15T01:56:37;100555.16;;;0.61;100.00
69153;BME280;56261;51.580;4.578;2024-01-15T01:59:03;100553.91;;;0.67;100.00
69153;BME280;56261;51.580;4.578;2024-01-15T02:01:31;100556.19;;;0.72;100.00
69153;BME280;56261;51.580;4.578;2024-01-15T02:03:56;100562.38;;;0.71;100.00
69153;BME280;56261;51.580;4.578;2024-01-15T02:06:23;100556.19;;;0.72;100.00
69153;BME280;56261;51.580;4.578;2024-01-15T02:08:49;100548.06;;;0.75;100.00
69153;BME280;56261;51.580;4.578;2024-01-15T02:11:14;100547.28;;;0.86;100.00
69153;BME280;56261;51.580;4.578;2024-01-15T02:13:40;100538.47;;;0.98;100.00
69153;BME280;56261;51.580;4.578;2024-01-15T02:16:05;100540.75;;;1.02;100.00
69153;BME280;56261;51.580;4.578;2024-01-15T02:18:40;100537.09;;;1.16;100.00
69153;BME280;56261;51.580;4.578;2024-01-15T02:21:05;100531.59;;;1.19;100.00
69153;BME280;56261;51.580;4.578;2024-01-15T02:23:31;100553.91;;;1.25;100.00
69153;BME280;56261;51.580;4.578;2024-01-15T02:25:56;100556.22;;;1.30;100.00
69153;BME280;56261;51.580;4.578;2024-01-15T02:28:22;100537.22;;;1.37;100.00
69153;BME280;56261;51.580;4.578;2024-01-15T02:30:47;100543.31;;;1.38;100.00
69153;BME280;56261;51.580;4.578;2024-01-15T02:33:12;100540.34;;;1.42;100.00
69153;BME280;56261;51.580;4.578;2024-01-15T02:35:38;100535.94;;;1.43;100.00
69153;BME280;56261;51.580;4.578;2024-01-15T02:38:04;100549.78;;;1.45;100.00
69153;BME280;56261;51.580;4.578;2024-01-15T02:40:30;100548.22;;;1.42;100.00
69153;BME280;56261;51.580;4.578;2024-01-15T02:42:56;100536.03;;;1.30;100.00
69153;BME280;56261;51.580;4.578;2024-01-15T02:45:22;100545.84;;;1.39;100.00
69153;BME280;56261;51.580;4.578;2024-01-15T02:47:48;100546.91;;;1.37;100.00
69153;BME280;56261;51.580;4.578;2024-01-15T02:50:13;100537.72;;;1.42;100.00
69153;BME280;56261;51.580;4.578;2024-01-15T02:52:39;100542.25;;;1.40;100.00
69153;BME280;56261;51.580;4.578;2024-01-15T02:55:04;100548.00;;;1.34;100.00
69153;BME280;56261;51.580;4.578;2024-01-15T02:57:30;100547.50;;;1.40;100.00
69153;BME280;56261;51.580;4.578;2024-01-15T02:59:55;100542.25;;;1.40;100.00
69153;BME280;56261;51.580;4.578;2024-01-15T03:02:21;100541.03;;;1.33;100.00
69153;BME280;56261;51.580;4.578;2024-01-15T03:04:46;100542.38;;;1.28;100.00
69153;BME280;56261;51.580;4.578;2024-01-15T03:07:12;100541.84;;;1.22;100.00
69153;BME280;56261;51.580;4.578;2024-01-15T03:09:37;100546.75;;;1.16;100.00
69153;BME280;56261;51.580;4.578;2024-01-15T03:12:03;100538.38;;;1.11;100.00
69153;BME280;56261;51.580;4.578;2024-01-15T03:14:28;100545.81;;;1.17;100.00
69153;BME280;56261;51.580;4.578;2024-01-15T03:16:54;100540.06;;;1.12;100.00
69153;BME280;56261;51.580;4.578;2024-01-15T03:19:19;100532.06;;;1.13;100.00
69153;BME280;56261;51.580;4.578;2024-01-15T03:21:44;100533.59;;;1.16;100.00
69153;BME280;56261;51.580;4.578;2024-01-15T03:24:10;100536.13;;;1.17;100.00
69153;BME280;56261;51.580;4.578;2024-01-15T03:26:35;100551.28;;;1.14;100.00
69153;BME280;56261;51.580;4.578;2024-01-15T03:29:01;100539.81;;;1.03;100.00
69153;BME280;56261;51.580;4.578;2024-01-15T03:31:26;100533.72;;;1.03;100.00
69153;BME280;56261;51.580;4.578;2024-01-15T03:33:51;100526.06;;;1.00;100.00
69153;BME280;56261;51.580;4.578;2024-01-15T03:36:17;100527.75;;;1.01;100.00
69153;BME280;56261;51.580;4.578;2024-01-15T03:38:42;100537.38;;;1.00;100.00
69153;BME280;56261;51.580;4.578;2024-01-15T03:41:07;100527.25;;;0.96;100.00
69153;BME280;56261;51.580;4.578;2024-01-15T03:43:33;100523.56;;;0.98;100.00
69153;BME280;56261;51.580;4.578;2024-01-15T03:45:58;100522.84;;;0.96;100.00
69153;BME280;56261;51.580;4.578;2024-01-15T03:48:24;100514.09;;;0.96;100.00
69153;BME280;56261;51.580;4.578;2024-01-15T03:50:49;100510.53;;;0.86;100.00
69153;BME280;56261;51.580;4.578;2024-01-15T03:53:15;100508.84;;;0.85;100.00
69153;BME280;56261;51.580;4.578;2024-01-15T03:55:40;100510.97;;;0.79;100.00
69153;BME280;56261;51.580;4.578;2024-01-15T03:58:06;100497.22;;;0.76;100.00
69153;BME280;56261;51.580;4.578;2024-01-15T04:00:31;100506.06;;;0.75;100.00
69153;BME280;56261;51.580;4.578;2024-01-15T04:02:56;100504.06;;;0.78;100.00
69153;BME280;56261;51.580;4.578;2024-01-15T04:05:22;100506.78;;;0.77;100.00
69153;BME280;56261;51.580;4.578;2024-01-15T04:07:47;100498.19;;;0.75;100.00
69153;BME280;56261;51.580;4.578;2024-01-15T04:10:12;100495.81;;;0.72;100.00
69153;BME280;56261;51.580;4.578;2024-01-15T04:12:38;100492.50;;;0.81;100.00
69153;BME280;56261;51.580;4.578;2024-01-15T04:15:03;100484.34;;;0.73;100.00
69153;BME280;56261;51.580;4.578;2024-01-15T04:17:29;100486.88;;;0.74;100.00
69153;BME280;56261;51.580;4.578;2024-01-15T04:19:54;100494.28;;;0.80;100.00
69153;BME280;56261;51.580;4.578;2024-01-15T04:22:20;100479.09;;;0.73;100.00
69153;BME280;56261;51.580;4.578;2024-01-15T04:24:45;100490.09;;;0.89;100.00
69153;BME280;56261;51.580;4.578;2024-01-15T04:27:11;100481.28;;;0.90;100.00
69153;BME280;56261;51.580;4.578;2024-01-15T04:29:39;100497.19;;;1.00;100.00
69153;BME280;56261;51.580;4.578;2024-01-15T04:32:05;100494.91;;;1.07;100.00
69153;BME280;56261;51.580;4.578;2024-01-15T04:34:30;100494.72;;;1.10;100.00
69153;BME280;56261;51.580;4.578;2024-01-15T04:36:56;100486.22;;;1.17;100.00
69153;BME280;56261;51.580;4.578;2024-01-15T04:39:21;100484.56;;;1.16;100.00
69153;BME280;56261;51.580;4.578;2024-01-15T04:41:47;100480.25;;;1.38;100.00
69153;BME280;56261;51.580;4.578;2024-01-15T04:44:13;100477.41;;;1.41;100.00
69153;BME280;56261;51.580;4.578;2024-01-15T04:46:38;100474.78;;;1.41;100.00
69153;BME280;56261;51.580;4.578;2024-01-15T04:49:03;100461.75;;;1.39;100.00
69153;BME280;56261;51.580;4.578;2024-01-15T04:51:29;100468.19;;;1.47;100.00
69153;BME280;56261;51.580;4.578;2024-01-15T04:53:54;100468.19;;;1.35;100.00
69153;BME280;56261;51.580;4.578;2024-01-15T04:56:19;100465.09;;;1.30;100.00
69153;BME280;56261;51.580;4.578;2024-01-15T04:58:45;100467.13;;;1.27;100.00
69153;BME280;56261;51.580;4.578;2024-01-15T05:01:10;100470.09;;;1.22;100.00
69153;BME280;56261;51.580;4.578;2024-01-15T05:03:36;100463.66;;;1.15;100.00
69153;BME280;56261;51.580;4.578;2024-01-15T05:06:01;100471.28;;;1.18;100.00
69153;BME280;56261;51.580;4.578;2024-01-15T05:08:27;100466.66;;;1.10;100.00
69153;BME280;56261;51.580;4.578;2024-01-15T05:10:52;100456.97;;;1.11;100.00
69153;BME280;56261;51.580;4.578;2024-01-15T05:13:17;100453.50;;;1.10;100.00
69153;BME280;56261;51.580;4.578;2024-01-15T05:15:43;100459.84;;;1.08;100.00
69153;BME280;56261;51.580;4.578;2024-01-15T05:18:08;100463.75;;;1.02;100.00
69153;BME280;56261;51.580;4.578;2024-01-15T05:20:34;100462.69;;;1.04;100.00
69153;BME280;56261;51.580;4.578;2024-01-15T05:22:59;100468.75;;;0.94;100.00
69153;BME280;56261;51.580;4.578;2024-01-15T05:25:24;100463.19;;;0.98;100.00
69153;BME280;56261;51.580;4.578;2024-01-15T05:27:50;100457.41;;;0.93;100.00
69153;BME280;56261;51.580;4.578;2024-01-15T05:30:15;100458.47;;;0.79;100.00
69153;BME280;56261;51.580;4.578;2024-01-15T05:32:41;100454.72;;;0.59;100.00
69153;BME280;56261;51.580;4.578;2024-01-15T05:35:07;100458.19;;;0.60;100.00
69153;BME280;56261;51.580;4.578;2024-01-15T05:37:32;100452.84;;;0.61;100.00
69153;BME280;56261;51.580;4.578;2024-01-15T05:39:57;100460.09;;;0.58;100.00
69153;BME280;56261;51.580;4.578;2024-01-15T05:42:23;100449.84;;;0.66;100.00
69153;BME280;56261;51.580;4.578;2024-01-15T05:44:49;100446.63;;;0.62;100.00
69153;BME280;56261;51.580;4.578;2024-01-15T05:47:14;100448.31;;;0.64;100.00
69153;BME280;56261;51.580;4.578;2024-01-15T05:49:40;100439.94;;;0.58;100.00
69153;BME280;56261;51.580;4.578;2024-01-15T05:52:05;100457.97;;;0.63;100.00
69153;BME280;56261;51.580;4.578;2024-01-15T05:54:31;100447.44;;;0.52;100.00
69153;BME280;56261;51.580;4.578;2024-01-15T05:56:56;100452.44;;;0.55;100.00
69153;BME280;56261;51.580;4.578;2024-01-15T05:59:22;100454.16;;;0.67;100.00
69153;BME280;56261;51.580;4.578;2024-01-15T06:01:47;100450.94;;;0.64;100.00
69153;BME280;56261;51.580;4.578;2024-01-15T06:04:12;100457.03;;;0.75;100.00
69153;BME280;56261;51.580;4.578;2024-01-15T06:06:38;100467.41;;;0.66;100.00
69153;BME280;56261;51.580;4.578;2024-01-15T06:09:03;100469.19;;;0.65;100.00
69153;BME280;56261;51.580;4.578;2024-01-15T06:11:33;100473.00;;;0.61;100.00
69153;BME280;56261;51.580;4.578;2024-01-15T06:13:59;100476.16;;;0.53;100.00
69153;BME280;56261;51.580;4.578;2024-01-15T06:16:26;100471.25;;;0.49;100.00
69153;BME280;56261;51.580;4.578;2024-01-15T06:18:51;100459.84;;;0.50;100.00
69153;BME280;56261;51.580;4.578;2024-01-15T06:21:16;100472.22;;;0.48;100.00
69153;BME280;56261;51.580;4.578;2024-01-15T06:23:42;100463.00;;;0.42;100.00
69153;BME280;56261;51.580;4.578;2024-01-15T06:26:07;100458.34;;;0.34;100.00
69153;BME280;56261;51.580;4.578;2024-01-15T06:28:33;100462.47;;;0.26;100.00
69153;BME280;56261;51.580;4.578;2024-01-15T06:30:58;100474.75;;;0.25;100.00
69153;BME280;56261;51.580;4.578;2024-01-15T06:33:24;100456.41;;;0.25;100.00
69153;BME280;56261;51.580;4.578;2024-01-15T06:35:50;100464.16;;;0.27;100.00
69153;BME280;56261;51.580;4.578;2024-01-15T06:38:15;100466.31;;;0.33;100.00
69153;BME280;56261;51.580;4.578;2024-01-15T06:40:41;100465.97;;;0.37;100.00
69153;BME280;56261;51.580;4.578;2024-01-15T06:43:11;100473.25;;;0.34;100.00
69153;BME280;56261;51.580;4.578;2024-01-15T06:45:36;100476.38;;;0.39;100.00
69153;BME280;56261;51.580;4.578;2024-01-15T06:48:02;100464.44;;;0.35;100.00
69153;BME280;56261;51.580;4.578;2024-01-15T06:50:27;100464.53;;;0.33;100.00
69153;BME280;56261;51.580;4.578;2024-01-15T06:52:53;100472.88;;;0.27;100.00
69153;BME280;56261;51.580;4.578;2024-01-15T06:55:18;100474.63;;;0.27;100.00
69153;BME280;56261;51.580;4.578;2024-01-15T06:57:43;100477.72;;;0.20;100.00
69153;BME280;56261;51.580;4.578;2024-01-15T07:00:09;100485.19;;;0.14;100.00
69153;BME280;56261;51.580;4.578;2024-01-15T07:02:35;100481.22;;;0.08;100.00
69153;BME280;56261;51.580;4.578;2024-01-15T07:05:00;100484.81;;;0.07;100.00
69153;BME280;56261;51.580;4.578;2024-01-15T07:07:26;100481.94;;;0.10;100.00
69153;BME280;56261;51.580;4.578;2024-01-15T07:09:54;100472.44;;;0.09;100.00
69153;BME280;56261;51.580;4.578;2024-01-15T07:12:19;100478.72;;;0.07;100.00
69153;BME280;56261;51.580;4.578;2024-01-15T07:14:45;100471.22;;;0.13;100.00
69153;BME280;56261;51.580;4.578;2024-01-15T07:17:10;100468.75;;;0.12;100.00
69153;BME280;56261;51.580;4.578;2024-01-15T07:19:35;100478.41;;;0.11;100.00
69153;BME280;56261;51.580;4.578;2024-01-15T07:22:01;100461.59;;;0.14;100.00
69153;BME280;56261;51.580;4.578;2024-01-15T07:24:27;100456.38;;;0.14;100.00
69153;BME280;56261;51.580;4.578;2024-01-15T07:26:52;100459.09;;;0.12;100.00
69153;BME280;56261;51.580;4.578;2024-01-15T07:29:18;100450.06;;;0.16;100.00
69153;BME280;56261;51.580;4.578;2024-01-15T07:31:52;100447.09;;;0.21;100.00
69153;BME280;56261;51.580;4.578;2024-01-15T07:34:19;100445.09;;;0.25;100.00
69153;BME280;56261;51.580;4.578;2024-01-15T07:36:44;100446.50;;;0.29;100.00
69153;BME280;56261;51.580;4.578;2024-01-15T07:39:10;100438.66;;;0.29;100.00
69153;BME280;56261;51.580;4.578;2024-01-15T07:41:36;100441.06;;;0.32;100.00
69153;BME280;56261;51.580;4.578;2024-01-15T07:44:01;100452.81;;;0.26;100.00
69153;BME280;56261;51.580;4.578;2024-01-15T07:46:27;100460.53;;;0.40;100.00
69153;BME280;56261;51.580;4.578;2024-01-15T07:48:52;100468.78;;;0.47;100.00
69153;BME280;56261;51.580;4.578;2024-01-15T07:51:23;100478.66;;;0.44;100.00
69153;BME280;56261;51.580;4.578;2024-01-15T07:53:48;100473.31;;;0.45;100.00
69153;BME280;56261;51.580;4.578;2024-01-15T07:56:14;100475.81;;;0.58;100.00
69153;BME280;56261;51.580;4.578;2024-01-15T07:58:39;100475.44;;;0.51;100.00
69153;BME280;56261;51.580;4.578;2024-01-15T08:01:04;100477.88;;;0.54;100.00
69153;BME280;56261;51.580;4.578;2024-01-15T08:03:31;100477.63;;;0.57;100.00
69153;BME280;56261;51.580;4.578;2024-01-15T08:05:56;100470.97;;;0.65;100.00
69153;BME280;56261;51.580;4.578;2024-01-15T08:08:24;100477.13;;;0.52;100.00
69153;BME280;56261;51.580;4.578;2024-01-15T08:10:50;100470.00;;;0.54;100.00
69153;BME280;56261;51.580;4.578;2024-01-15T08:13:15;100477.66;;;0.69;100.00
69153;BME280;56261;51.580;4.578;2024-01-15T08:15:41;100487.78;;;0.62;100.00
69153;BME280;56261;51.580;4.578;2024-01-15T08:18:06;100490.88;;;0.56;100.00
69153;BME280;56261;51.580;4.578;2024-01-15T08:20:32;100496.00;;;0.57;100.00
69153;BME280;56261;51.580;4.578;2024-01-15T08:22:57;100488.75;;;0.61;100.00
69153;BME280;56261;51.580;4.578;2024-01-15T08:25:23;100489.94;;;0.68;100.00
69153;BME280;56261;51.580;4.578;2024-01-15T08:27:48;100484.81;;;0.67;100.00
69153;BME280;56261;51.580;4.578;2024-01-15T08:30:14;100483.34;;;0.62;100.00
69153;BME280;56261;51.580;4.578;2024-01-15T08:32:39;100474.66;;;0.62;100.00
69153;BME280;56261;51.580;4.578;2024-01-15T08:35:08;100481.94;;;0.58;100.00
69153;BME280;56261;51.580;4.578;2024-01-15T08:37:34;100471.47;;;0.70;100.00
69153;BME280;56261;51.580;4.578;2024-01-15T08:39:59;100470.91;;;0.89;100.00
69153;BME280;56261;51.580;4.578;2024-01-15T08:42:25;100470.19;;;0.87;100.00
69153;BME280;56261;51.580;4.578;2024-01-15T08:44:50;100485.81;;;0.88;100.00
69153;BME280;56261;51.580;4.578;2024-01-15T08:47:16;100482.03;;;0.92;100.00
69153;BME280;56261;51.580;4.578;2024-01-15T08:49:42;100479.41;;;1.03;100.00
69153;BME280;56261;51.580;4.578;2024-01-15T08:52:09;100487.41;;;1.02;100.00
69153;BME280;56261;51.580;4.578;2024-01-15T08:54:34;100477.63;;;1.04;100.00
69153;BME280;56261;51.580;4.578;2024-01-15T08:57:00;100488.16;;;0.69;100.00
69153;BME280;56261;51.580;4.578;2024-01-15T08:59:25;100492.09;;;0.63;100.00
69153;BME280;56261;51.580;4.578;2024-01-15T09:01:52;100484.06;;;0.65;100.00
69153;BME280;56261;51.580;4.578;2024-01-15T09:04:18;100497.75;;;0.81;100.00
69153;BME280;56261;51.580;4.578;2024-01-15T09:06:47;100487.59;;;0.76;100.00
69153;BME280;56261;51.580;4.578;2024-01-15T09:09:13;100492.72;;;0.78;100.00
69153;BME280;56261;51.580;4.578;2024-01-15T09:11:40;100492.50;;;0.81;100.00
69153;BME280;56261;51.580;4.578;2024-01-15T09:14:05;100491.19;;;0.87;100.00
69153;BME280;56261;51.580;4.578;2024-01-15T09:16:31;100496.28;;;0.77;100.00
69153;BME280;56261;51.580;4.578;2024-01-15T09:18:56;100490.72;;;0.93;100.00
69153;BME280;56261;51.580;4.578;2024-01-15T09:21:22;100498.72;;;1.02;100.00
69153;BME280;56261;51.580;4.578;2024-01-15T09:23:49;100503.16;;;1.13;100.00
69153;BME280;56261;51.580;4.578;2024-01-15T09:26:15;100510.34;;;1.22;100.00
69153;BME280;56261;51.580;4.578;2024-01-15T09:28:40;100519.25;;;0.97;100.00
69153;BME280;56261;51.580;4.578;2024-01-15T09:31:06;100522.88;;;0.72;100.00
69153;BME280;56261;51.580;4.578;2024-01-15T09:33:31;100529.00;;;0.49;100.00
69153;BME280;56261;51.580;4.578;2024-01-15T09:35:56;100513.09;;;0.39;100.00
69153;BME280;56261;51.580;4.578;2024-01-15T09:38:22;100509.97;;;0.34;100.00
69153;BME280;56261;51.580;4.578;2024-01-15T09:40:49;100516.09;;;0.46;100.00
69153;BME280;56261;51.580;4.578;2024-01-15T09:43:15;100498.97;;;0.53;100.00
69153;BME280;56261;51.580;4.578;2024-01-15T09:45:42;100505.38;;;0.49;100.00
69153;BME280;56261;51.580;4.578;2024-01-15T09:48:08;100503.47;;;0.51;100.00
69153;BME280;56261;51.580;4.578;2024-01-15T09:50:34;100506.94;;;0.51;100.00
69153;BME280;56261;51.580;4.578;2024-01-15T09:53:00;100513.63;;;0.55;100.00
69153;BME280;56261;51.580;4.578;2024-01-15T09:55:27;100527.03;;;0.64;100.00
69153;BME280;56261;51.580;4.578;2024-01-15T09:57:55;100525.44;;;0.50;100.00
69153;BME280;56261;51.580;4.578;2024-01-15T10:00:22;100527.22;;;0.49;100.00
69153;BME280;56261;51.580;4.578;2024-01-15T10:02:48;100534.19;;;0.37;100.00
69153;BME280;56261;51.580;4.578;2024-01-15T10:05:14;100522.13;;;0.35;100.00
69153;BME280;56261;51.580;4.578;2024-01-15T10:07:40;100535.31;;;0.46;100.00
69153;BME280;56261;51.580;4.578;2024-01-15T10:10:05;100525.88;;;0.44;100.00
69153;BME280;56261;51.580;4.578;2024-01-15T10:12:32;100533.16;;;0.51;100.00
69153;BME280;56261;51.580;4.578;2024-01-15T10:14:58;100532.84;;;0.56;100.00
69153;BME280;56261;51.580;4.578;2024-01-15T10:17:24;100527.03;;;0.64;100.00
69153;BME280;56261;51.580;4.578;2024-01-15T10:19:50;100517.28;;;0.77;100.00
69153;BME280;56261;51.580;4.578;2024-01-15T10:22:16;100515.00;;;0.72;100.00
69153;BME280;56261;51.580;4.578;2024-01-15T10:24:43;100516.56;;;0.75;100.00
69153;BME280;56261;51.580;4.578;2024-01-15T10:27:09;100528.72;;;0.76;100.00
69153;BME280;56261;51.580;4.578;2024-01-15T10:29:35;100536.28;;;0.80;100.00
69153;BME280;56261;51.580;4.578;2024-01-15T10:32:07;100530.81;;;0.83;100.00
69153;BME280;56261;51.580;4.578;2024-01-15T10:34:42;100533.88;;;0.77;100.00
69153;BME280;56261;51.580;4.578;2024-01-15T10:37:10;100534.94;;;0.75;100.00
69153;BME280;56261;51.580;4.578;2024-01-15T10:39:36;100520.00;;;0.64;100.00
69153;BME280;56261;51.580;4.578;2024-01-15T10:42:02;100517.75;;;0.47;100.00
69153;BME280;56261;51.580;4.578;2024-01-15T10:44:29;100525.09;;;0.54;100.00
69153;BME280;56261;51.580;4.578;2024-01-15T10:46:55;100530.78;;;0.48;100.00
69153;BME280;56261;51.580;4.578;2024-01-15T10:49:22;100527.91;;;0.51;100.00
69153;BME280;56261;51.580;4.578;2024-01-15T10:51:50;100530.44;;;0.53;100.00
69153;BME280;56261;51.580;4.578;2024-01-15T10:54:16;100540.16;;;0.64;100.00
69153;BME280;56261;51.580;4.578;2024-01-15T10:56:42;100545.44;;;0.75;100.00
69153;BME280;56261;51.580;4.578;2024-01-15T10:59:10;100551.91;;;0.82;100.00
69153;BME280;56261;51.580;4.578;2024-01-15T11:01:37;100531.06;;;0.92;100.00
69153;BME280;56261;51.580;4.578;2024-01-15T11:04:02;100539.81;;;1.03;100.00
69153;BME280;56261;51.580;4.578;2024-01-15T11:06:28;100538.88;;;1.27;100.00
69153;BME280;56261;51.580;4.578;2024-01-15T11:08:54;100529.69;;;1.21;100.00
69153;BME280;56261;51.580;4.578;2024-01-15T11:11:21;100544.81;;;1.07;100.00
69153;BME280;56261;51.580;4.578;2024-01-15T11:13:47;100553.94;;;0.78;100.00
69153;BME280;56261;51.580;4.578;2024-01-15T11:16:15;100538.00;;;0.69;100.00
69153;BME280;56261;51.580;4.578;2024-01-15T11:21:22;100551.81;;;0.59;100.00
69153;BME280;56261;51.580;4.578;2024-01-15T11:23:54;100550.84;;;0.49;100.00
69153;BME280;56261;51.580;4.578;2024-01-15T11:29:05;100548.75;;;0.41;100.00
69153;BME280;56261;51.580;4.578;2024-01-15T11:34:06;100561.00;;;0.54;100.00
69153;BME280;56261;51.580;4.578;2024-01-15T11:42:01;100565.94;;;0.46;100.00
69153;BME280;56261;51.580;4.578;2024-01-15T11:44:27;100573.44;;;0.39;100.00
69153;BME280;56261;51.580;4.578;2024-01-15T11:52:18;100553.44;;;0.25;100.00
69153;BME280;56261;51.580;4.578;2024-01-15T11:57:34;100566.06;;;0.44;100.00
69153;BME280;56261;51.580;4.578;2024-01-15T12:00:04;100562.66;;;0.55;100.00
69153;BME280;56261;51.580;4.578;2024-01-15T12:02:29;100556.22;;;0.59;100.00
69153;BME280;56261;51.580;4.578;2024-01-15T12:04:55;100566.50;;;0.62;100.00
69153;BME280;56261;51.580;4.578;2024-01-15T12:07:20;100566.34;;;0.76;100.00
69153;BME280;56261;51.580;4.578;2024-01-15T12:09:46;100563.13;;;0.84;100.00
69153;BME280;56261;51.580;4.578;2024-01-15T12:12:28;100560.06;;;0.90;100.00
69153;BME280;56261;51.580;4.578;2024-01-15T12:14:54;100555.59;;;0.79;100.00
69153;BME280;56261;51.580;4.578;2024-01-15T12:17:19;100558.47;;;0.76;100.00
69153;BME280;56261;51.580;4.578;2024-01-15T12:19:45;100547.34;;;0.73;100.00
69153;BME280;56261;51.580;4.578;2024-01-15T12:22:11;100557.13;;;0.71;100.00
69153;BME280;56261;51.580;4.578;2024-01-15T12:24:36;100552.19;;;0.66;100.00
69153;BME280;56261;51.580;4.578;2024-01-15T12:27:01;100553.50;;;0.60;100.00
69153;BME280;56261;51.580;4.578;2024-01-15T12:29:27;100562.25;;;0.72;100.00
69153;BME280;56261;51.580;4.578;2024-01-15T12:31:53;100570.13;;;0.72;100.00
69153;BME280;56261;51.580;4.578;2024-01-15T12:34:19;100559.63;;;0.72;100.00
69153;BME280;56261;51.580;4.578;2024-01-15T12:36:46;100576.84;;;1.12;100.00
69153;BME280;56261;51.580;4.578;2024-01-15T12:39:12;100587.16;;;1.49;100.00
69153;BME280;56261;51.580;4.578;2024-01-15T12:41:38;100599.00;;;1.43;100.00
69153;BME280;56261;51.580;4.578;2024-01-15T12:44:04;100593.00;;;1.30;100.00
69153;BME280;56261;51.580;4.578;2024-01-15T12:46:30;100591.03;;;1.20;100.00
69153;BME280;56261;51.580;4.578;2024-01-15T12:48:56;100587.38;;;1.23;100.00
69153;BME280;56261;51.580;4.578;2024-01-15T12:51:25;100590.09;;;1.21;100.00
69153;BME280;56261;51.580;4.578;2024-01-15T12:53:51;100584.81;;;1.10;100.00
69153;BME280;56261;51.580;4.578;2024-01-15T12:56:17;100579.94;;;1.17;100.00
69153;BME280;56261;51.580;4.578;2024-01-15T12:58:42;100585.56;;;1.23;100.00
69153;BME280;56261;51.580;4.578;2024-01-15T13:01:07;100592.50;;;1.36;100.00
69153;BME280;56261;51.580;4.578;2024-01-15T13:03:33;100587.78;;;1.41;100.00
69153;BME280;56261;51.580;4.578;2024-01-15T13:05:58;100591.78;;;1.34;100.00